createdAt,value
2023-04-06T00:00:58.994Z,98823.92
2023-04-06T00:03:30.040Z,98819.75
2023-04-06T00:05:59.175Z,98817.68
2023-04-06T00:08:28.232Z,98816.58
2023-04-06T00:10:56.490Z,98811.73
2023-04-06T00:13:29.378Z,98809.53
2023-04-06T00:15:58.182Z,98802.59
2023-04-06T00:18:27.722Z,98807.46
2023-04-06T00:20:56.797Z,98806.73
2023-04-06T00:23:25.205Z,98801.21
2023-04-06T00:25:53.864Z,98799.88
2023-04-06T00:30:42.180Z,98795.56
2023-04-06T00:33:10.680Z,98796.66
2023-04-06T00:35:40.105Z,98795.00
2023-04-06T00:38:08.481Z,98794.83
2023-04-06T00:40:36.831Z,98797.85
2023-04-06T00:43:05.350Z,98799.39
2023-04-06T00:45:34.602Z,98794.05
2023-04-06T00:48:03.091Z,98787.67
2023-04-06T00:50:32.582Z,98786.34
2023-04-06T00:53:01.577Z,98779.55
2023-04-06T00:55:32.929Z,98787.37
2023-04-06T00:58:02.373Z,98784.60
2023-04-06T01:00:38.855Z,98780.27
2023-04-06T01:03:15.351Z,98770.27
2023-04-06T01:05:45.431Z,98780.05
2023-04-06T01:08:22.060Z,98775.83
2023-04-06T01:10:51.633Z,98776.27
2023-04-06T01:13:28.533Z,98770.69
2023-04-06T01:16:01.010Z,98778.05
2023-04-06T01:18:38.721Z,98770.48
2023-04-06T01:21:19.950Z,98773.91
2023-04-06T01:24:11.499Z,98768.91
2023-04-06T01:27:03.167Z,98763.44
2023-04-06T01:29:45.947Z,98763.11
2023-04-06T01:32:17.910Z,98769.92
2023-04-06T01:34:50.853Z,98761.54
2023-04-06T01:37:19.178Z,98763.55
2023-04-06T01:39:48.744Z,98759.23
2023-04-06T01:42:23.640Z,98758.86
2023-04-06T01:44:52.922Z,98762.29
2023-04-06T01:47:21.401Z,98766.34
2023-04-06T01:49:50.376Z,98766.80
2023-04-06T01:52:19.887Z,98759.61
2023-04-06T01:54:53.854Z,98753.90
2023-04-06T01:57:40.656Z,98741.55
2023-04-06T02:00:20.870Z,98743.84
2023-04-06T02:02:52.580Z,98739.75
2023-04-06T02:05:25.027Z,98742.67
2023-04-06T02:07:56.585Z,98743.67
2023-04-06T02:10:34.585Z,98742.80
2023-04-06T02:13:06.166Z,98734.40
2023-04-06T02:15:34.756Z,98737.28
2023-04-06T02:18:03.141Z,98735.70
2023-04-06T02:20:32.315Z,98745.73
2023-04-06T02:23:03.767Z,98743.41
2023-04-06T02:25:32.919Z,98749.09
2023-04-06T02:28:01.274Z,98749.73
2023-04-06T02:30:33.031Z,98750.46
2023-04-06T02:33:02.039Z,98749.65
2023-04-06T02:35:31.822Z,98747.56
2023-04-06T02:38:00.465Z,98746.05
2023-04-06T02:40:29.139Z,98745.17
2023-04-06T02:42:58.289Z,98743.66
2023-04-06T02:45:30.535Z,98746.54
2023-04-06T02:47:59.139Z,98741.99
2023-04-06T02:50:27.605Z,98737.39
2023-04-06T02:53:01.440Z,98739.56
2023-04-06T02:55:29.797Z,98743.13
2023-04-06T02:57:58.333Z,98745.07
2023-04-06T03:00:30.268Z,98745.35
2023-04-06T03:02:59.187Z,98740.73
2023-04-06T03:05:28.416Z,98742.27
2023-04-06T03:07:56.716Z,98736.46
2023-04-06T03:10:36.912Z,98736.17
2023-04-06T03:13:06.589Z,98735.45
2023-04-06T03:15:56.387Z,98733.30
2023-04-06T03:18:26.640Z,98734.26
2023-04-06T03:20:57.736Z,98730.48
2023-04-06T03:23:46.172Z,98733.14
2023-04-06T03:26:14.747Z,98736.73
2023-04-06T03:28:42.898Z,98740.70
2023-04-06T03:31:15.130Z,98741.03
2023-04-06T03:34:06.540Z,98742.86
2023-04-06T03:36:36.892Z,98745.52
2023-04-06T03:39:06.650Z,98750.69
2023-04-06T03:41:37.371Z,98753.91
2023-04-06T03:44:16.670Z,98751.88
2023-04-06T03:46:46.576Z,98753.51
2023-04-06T03:49:15.696Z,98750.23
2023-04-06T03:51:45.713Z,98746.43
2023-04-06T03:54:14.015Z,98749.59
2023-04-06T03:56:42.656Z,98748.48
2023-04-06T03:59:11.814Z,98755.05
2023-04-06T04:01:43.052Z,98756.06
2023-04-06T04:04:11.947Z,98755.58
2023-04-06T04:06:40.502Z,98755.94
2023-04-06T04:09:10.330Z,98756.13
2023-04-06T04:11:39.600Z,98757.33
2023-04-06T04:14:08.210Z,98763.05
2023-04-06T04:16:37.159Z,98761.73
2023-04-06T04:19:05.744Z,98765.59
2023-04-06T04:21:34.244Z,98765.67
2023-04-06T04:24:09.369Z,98763.59
2023-04-06T04:26:38.840Z,98759.26
2023-04-06T04:29:08.089Z,98757.36
2023-04-06T04:31:37.891Z,98758.45
2023-04-06T04:34:08.346Z,98761.05
2023-04-06T04:36:45.888Z,98761.95
2023-04-06T04:39:19.036Z,98758.20
2023-04-06T04:41:50.539Z,98758.53
2023-04-06T04:44:20.123Z,98762.31
2023-04-06T04:46:49.479Z,98766.71
2023-04-06T04:49:21.682Z,98765.56
2023-04-06T04:51:53.750Z,98767.01
2023-04-06T04:54:35.312Z,98768.36
2023-04-06T04:57:04.601Z,98765.56
2023-04-06T04:59:44.623Z,98766.40
2023-04-06T05:02:19.482Z,98769.71
2023-04-06T05:05:01.297Z,98769.38
2023-04-06T05:07:30.955Z,98770.95
2023-04-06T05:10:04.920Z,98769.39
2023-04-06T05:12:37.369Z,98766.23
2023-04-06T05:15:09.542Z,98768.27
2023-04-06T05:17:39.134Z,98772.99
2023-04-06T05:20:08.567Z,98776.61
2023-04-06T05:22:41.084Z,98777.70
2023-04-06T05:25:11.851Z,98776.86
2023-04-06T05:27:41.724Z,98777.95
2023-04-06T05:30:21.696Z,98772.06
2023-04-06T05:32:52.268Z,98769.41
2023-04-06T05:35:22.309Z,98769.40
2023-04-06T05:37:53.690Z,98774.54
2023-04-06T05:40:25.061Z,98769.98
2023-04-06T05:42:53.601Z,98770.73
2023-04-06T05:45:22.605Z,98770.12
2023-04-06T05:47:54.740Z,98768.94
2023-04-06T05:50:26.911Z,98769.11
2023-04-06T05:52:55.441Z,98774.24
2023-04-06T05:55:24.463Z,98775.70
2023-04-06T05:57:59.160Z,98774.12
2023-04-06T06:00:29.033Z,98777.61
2023-04-06T06:03:01.666Z,98778.60
2023-04-06T06:05:30.593Z,98774.27
2023-04-06T06:08:03.528Z,98778.98
2023-04-06T06:10:32.332Z,98771.23
2023-04-06T06:13:01.393Z,98773.54
2023-04-06T06:15:30.016Z,98775.67
2023-04-06T06:17:58.633Z,98775.96
2023-04-06T06:20:27.660Z,98774.66
2023-04-06T06:22:57.265Z,98775.21
2023-04-06T06:25:25.742Z,98775.16
2023-04-06T06:27:54.798Z,98775.91
2023-04-06T06:30:23.656Z,98772.25
2023-04-06T06:32:53.619Z,98771.35
2023-04-06T06:35:22.340Z,98770.39
2023-04-06T06:37:51.249Z,98769.73
2023-04-06T06:40:25.120Z,98769.27
2023-04-06T06:42:55.238Z,98771.02
2023-04-06T06:45:44.028Z,98772.69
2023-04-06T06:48:15.206Z,98765.92
2023-04-06T06:50:43.653Z,98772.03
2023-04-06T06:53:16.742Z,98775.16
2023-04-06T06:55:49.978Z,98770.36
2023-04-06T06:58:21.671Z,98771.30
2023-04-06T07:00:50.688Z,98768.27
2023-04-06T07:03:19.686Z,98780.11
2023-04-06T07:05:54.131Z,98785.14
2023-04-06T07:08:24.029Z,98784.98
2023-04-06T07:10:59.258Z,98783.89
2023-04-06T07:13:28.769Z,98784.46
2023-04-06T07:16:00.194Z,98782.27
2023-04-06T07:18:30.550Z,98785.67
2023-04-06T07:21:00.733Z,98785.80
2023-04-06T07:23:29.886Z,98783.36
2023-04-06T07:25:58.482Z,98787.56
2023-04-06T07:28:27.465Z,98785.53
2023-04-06T07:30:57.353Z,98786.84
2023-04-06T07:33:31.829Z,98792.64
2023-04-06T07:36:00.701Z,98792.30
2023-04-06T07:38:29.972Z,98793.58
2023-04-06T07:40:58.713Z,98791.52
2023-04-06T07:43:28.330Z,98790.46
2023-04-06T07:45:58.591Z,98788.02
2023-04-06T07:48:28.756Z,98787.55
2023-04-06T07:51:04.570Z,98795.65
2023-04-06T07:53:34.005Z,98799.94
2023-04-06T07:56:02.639Z,98801.59
2023-04-06T07:58:31.018Z,98801.61
2023-04-06T08:01:05.807Z,98807.95
2023-04-06T08:03:36.557Z,98802.30
2023-04-06T08:06:06.392Z,98811.00
2023-04-06T08:08:43.110Z,98810.23
2023-04-06T08:11:11.692Z,98812.81
2023-04-06T08:13:40.004Z,98806.72
2023-04-06T08:16:09.578Z,98810.75
2023-04-06T08:18:38.704Z,98806.05
2023-04-06T08:21:07.189Z,98811.64
2023-04-06T08:23:36.178Z,98808.33
2023-04-06T08:26:04.865Z,98807.80
2023-04-06T08:28:37.090Z,98808.91
2023-04-06T08:31:08.379Z,98810.60
2023-04-06T08:33:40.278Z,98811.27
2023-04-06T08:36:12.635Z,98810.84
2023-04-06T08:38:43.935Z,98808.20
2023-04-06T08:41:13.592Z,98809.55
2023-04-06T08:43:49.676Z,98813.11
2023-04-06T08:46:18.849Z,98817.44
2023-04-06T08:48:47.359Z,98811.04
2023-04-06T08:51:16.350Z,98811.23
2023-04-06T08:53:44.840Z,98816.04
2023-04-06T08:56:13.575Z,98814.29
2023-04-06T08:58:42.120Z,98815.61
2023-04-06T09:01:13.642Z,98817.95
2023-04-06T09:03:46.781Z,98816.14
2023-04-06T09:06:15.497Z,98819.75
2023-04-06T09:08:44.537Z,98817.20
2023-04-06T09:11:12.935Z,98823.38
2023-04-06T09:13:52.688Z,98823.81
2023-04-06T09:16:21.238Z,98824.54
2023-04-06T09:18:49.752Z,98826.39
2023-04-06T09:21:19.231Z,98833.36
2023-04-06T09:23:49.798Z,98833.33
2023-04-06T09:26:19.309Z,98839.88
2023-04-06T09:28:53.586Z,98838.77
2023-04-06T09:31:28.792Z,98842.45
2023-04-06T09:33:57.591Z,98844.26
2023-04-06T09:36:34.238Z,98844.27
2023-04-06T09:39:05.625Z,98846.92
2023-04-06T09:41:36.578Z,98849.06
2023-04-06T09:44:09.293Z,98848.73
2023-04-06T09:46:55.029Z,98854.59
2023-04-06T09:49:29.942Z,98855.60
2023-04-06T09:52:04.368Z,98862.20
2023-04-06T09:54:33.386Z,98863.88
2023-04-06T09:57:11.991Z,98863.77
2023-04-06T10:00:09.147Z,98863.71
2023-04-06T10:02:52.028Z,98865.59
2023-04-06T10:05:22.225Z,98870.61
2023-04-06T10:08:00.404Z,98873.79
2023-04-06T10:10:30.255Z,98874.27
2023-04-06T10:12:59.322Z,98878.46
2023-04-06T10:15:33.899Z,98872.98
2023-04-06T10:18:02.705Z,98872.61
2023-04-06T10:20:38.162Z,98873.11
2023-04-06T10:23:10.100Z,98875.60
2023-04-06T10:25:39.738Z,98877.29
2023-04-06T10:28:09.496Z,98880.10
2023-04-06T10:30:43.154Z,98879.89
2023-04-06T10:33:19.330Z,98883.15
2023-04-06T10:35:47.971Z,98884.27
2023-04-06T10:38:21.239Z,98889.16
2023-04-06T10:40:49.993Z,98891.58
2023-04-06T10:43:23.211Z,98890.92
2023-04-06T10:45:59.197Z,98893.77
2023-04-06T10:48:41.563Z,98893.82
2023-04-06T10:51:29.424Z,98891.55
2023-04-06T10:53:58.012Z,98898.30
2023-04-06T10:56:29.081Z,98899.20
2023-04-06T10:58:57.647Z,98895.52
2023-04-06T11:01:28.887Z,98897.71
2023-04-06T11:04:01.301Z,98902.48
2023-04-06T11:06:32.364Z,98900.59
2023-04-06T11:09:01.719Z,98899.88
2023-04-06T11:11:30.526Z,98902.48
2023-04-06T11:14:02.395Z,98911.21
2023-04-06T11:16:32.950Z,98909.53
2023-04-06T11:19:02.740Z,98908.86
2023-04-06T11:21:34.966Z,98913.91
2023-04-06T11:24:18.002Z,98917.46
2023-04-06T11:26:50.037Z,98920.59
2023-04-06T11:29:22.727Z,98921.27
2023-04-06T11:31:52.756Z,98922.60
2023-04-06T11:34:25.082Z,98919.77
2023-04-06T11:37:01.412Z,98922.55
2023-04-06T11:39:30.694Z,98923.91
2023-04-06T11:42:09.077Z,98922.33
2023-04-06T11:44:47.244Z,98928.71
2023-04-06T11:47:15.757Z,98933.14
2023-04-06T11:49:46.439Z,98930.39
2023-04-06T11:52:25.610Z,98932.20
2023-04-06T11:54:55.231Z,98931.27
2023-04-06T11:57:26.889Z,98925.86
2023-04-06T11:59:56.344Z,98932.99
2023-04-06T12:02:24.773Z,98932.15
2023-04-06T12:04:53.288Z,98936.17
2023-04-06T12:07:23.178Z,98934.90
2023-04-06T12:09:52.127Z,98937.21
2023-04-06T12:12:20.527Z,98935.42
2023-04-06T12:14:48.909Z,98933.56
2023-04-06T12:17:17.395Z,98937.99
2023-04-06T12:19:45.827Z,98935.94
2023-04-06T12:22:14.439Z,98934.80
2023-04-06T12:24:43.148Z,98935.46
2023-04-06T12:27:12.747Z,98933.83
2023-04-06T12:29:42.885Z,98927.55
2023-04-06T12:32:11.625Z,98937.48
2023-04-06T12:34:42.132Z,98939.92
2023-04-06T12:37:10.550Z,98937.59
2023-04-06T12:39:45.621Z,98936.29
2023-04-06T12:42:15.042Z,98937.03
2023-04-06T12:47:00.042Z,98943.42
2023-04-06T12:49:29.904Z,98940.46
2023-04-06T12:52:08.243Z,98940.88
2023-04-06T12:54:37.448Z,98940.04
2023-04-06T12:57:06.182Z,98941.92
2023-04-06T12:59:36.715Z,98936.45
2023-04-06T13:02:06.663Z,98940.29
2023-04-06T13:04:35.113Z,98938.81
2023-04-06T13:07:06.454Z,98941.36
2023-04-06T13:09:35.945Z,98939.11
2023-04-06T13:12:04.969Z,98942.80
2023-04-06T13:14:33.606Z,98944.65
2023-04-06T13:17:02.334Z,98946.94
2023-04-06T13:19:32.399Z,98949.61
2023-04-06T13:22:01.699Z,98948.60
2023-04-06T13:24:30.906Z,98950.17
2023-04-06T13:26:59.702Z,98951.30
2023-04-06T13:29:28.455Z,98949.32
2023-04-06T13:31:57.564Z,98950.36
2023-04-06T13:34:26.222Z,98950.55
2023-04-06T13:36:55.194Z,98949.88
2023-04-06T13:39:30.046Z,98949.48
2023-04-06T13:41:58.706Z,98951.04
2023-04-06T13:44:27.241Z,98951.31
2023-04-06T13:46:56.339Z,98947.68
2023-04-06T13:49:24.749Z,98942.71
2023-04-06T13:51:56.379Z,98935.38
2023-04-06T13:54:24.988Z,98940.45
2023-04-06T13:56:53.577Z,98946.83
2023-04-06T13:59:22.557Z,98942.75
2023-04-06T14:01:51.034Z,98944.83
2023-04-06T14:04:19.534Z,98948.98
2023-04-06T14:06:48.786Z,98945.92
2023-04-06T14:09:17.561Z,98949.11
2023-04-06T14:11:50.597Z,98948.73
2023-04-06T14:14:18.839Z,98949.27
2023-04-06T14:16:50.336Z,98946.08
2023-04-06T14:19:19.165Z,98944.39
2023-04-06T14:21:47.722Z,98944.84
2023-04-06T14:24:17.280Z,98944.17
2023-04-06T14:26:45.462Z,98947.77
2023-04-06T14:29:14.768Z,98945.45
2023-04-06T14:31:43.537Z,98945.73
2023-04-06T14:34:11.906Z,98950.78
2023-04-06T14:36:41.450Z,98949.77
2023-04-06T14:39:11.110Z,98950.03
2023-04-06T14:41:42.008Z,98948.83
2023-04-06T14:44:13.404Z,98943.58
2023-04-06T14:46:42.819Z,98947.36
2023-04-06T14:49:12.260Z,98948.20
2023-04-06T14:51:41.027Z,98951.25
2023-04-06T14:54:09.607Z,98951.05
2023-04-06T14:56:39.823Z,98957.19
2023-04-06T14:59:09.063Z,98957.46
2023-04-06T15:01:38.350Z,98958.24
2023-04-06T15:04:07.061Z,98961.48
2023-04-06T15:06:50.633Z,98963.82
2023-04-06T15:09:31.960Z,98966.31
2023-04-06T15:12:19.601Z,98968.10
2023-04-06T15:15:02.759Z,98971.31
2023-04-06T15:17:50.616Z,98966.43
2023-04-06T15:20:34.741Z,98971.58
2023-04-06T15:23:22.556Z,98978.43
2023-04-06T15:26:05.094Z,98978.85
2023-04-06T15:28:52.672Z,98979.58
2023-04-06T15:31:38.171Z,98979.27
2023-04-06T15:34:26.609Z,98984.50
2023-04-06T15:37:09.401Z,98992.48
2023-04-06T15:39:59.102Z,98992.80
2023-04-06T15:43:01.643Z,98992.73
2023-04-06T15:46:04.723Z,98993.89
2023-04-06T15:49:07.629Z,98998.23
2023-04-06T15:52:09.622Z,98999.32
2023-04-06T15:55:11.665Z,99003.21
2023-04-06T15:58:14.665Z,99006.09
2023-04-06T16:01:27.701Z,99001.83
2023-04-06T16:04:30.797Z,99003.86
2023-04-06T16:07:32.604Z,99007.35
2023-04-06T16:10:34.646Z,99010.40
2023-04-06T16:13:36.646Z,99012.93
2023-04-06T16:16:38.810Z,99014.41
2023-04-06T16:19:40.674Z,99019.63
2023-04-06T16:22:46.190Z,99022.63
2023-04-06T16:25:48.669Z,99019.02
2023-04-06T16:28:51.737Z,99024.42
2023-04-06T16:31:54.755Z,99030.23
2023-04-06T16:34:56.774Z,99027.18
2023-04-06T16:37:58.720Z,99032.10
2023-04-06T16:41:01.739Z,99038.32
2023-04-06T16:44:03.708Z,99044.42
2023-04-06T16:47:05.781Z,99049.66
2023-04-06T16:50:05.085Z,99053.42
2023-04-06T16:52:37.381Z,99059.20
2023-04-06T16:55:06.428Z,99058.17
2023-04-06T16:57:35.175Z,99053.55
2023-04-06T17:00:06.413Z,99054.94
2023-04-06T17:02:37.110Z,99056.91
2023-04-06T17:05:06.604Z,99062.90
2023-04-06T17:07:36.394Z,99068.20
2023-04-06T17:10:06.983Z,99067.93
2023-04-06T17:12:38.277Z,99071.99
2023-04-06T17:15:07.364Z,99076.98
2023-04-06T17:17:35.931Z,99077.84
2023-04-06T17:20:05.082Z,99082.71
2023-04-06T17:22:34.875Z,99087.34
2023-04-06T17:25:05.515Z,99090.14
2023-04-06T17:27:33.943Z,99093.52
2023-04-06T17:30:06.586Z,99090.19
2023-04-06T17:32:36.507Z,99093.02
2023-04-06T17:35:05.917Z,99093.59
2023-04-06T17:37:34.532Z,99092.44
2023-04-06T17:40:03.088Z,99094.44
2023-04-06T17:42:32.420Z,99095.49
2023-04-06T17:45:00.622Z,99100.84
2023-04-06T17:47:32.561Z,99104.29
2023-04-06T17:50:01.764Z,99106.83
2023-04-06T17:52:30.620Z,99108.66
2023-04-06T17:54:59.674Z,99111.58
2023-04-06T17:57:28.129Z,99112.07
2023-04-06T17:59:56.587Z,99112.29
2023-04-06T18:02:25.380Z,99110.48
2023-04-06T18:04:53.959Z,99116.71
2023-04-06T18:07:22.295Z,99119.87
2023-04-06T18:09:51.197Z,99123.00
2023-04-06T18:12:26.073Z,99129.27
2023-04-06T18:14:55.807Z,99137.95
2023-04-06T18:17:24.502Z,99140.57
2023-04-06T18:19:52.939Z,99143.23
2023-04-06T18:22:21.369Z,99146.41
2023-04-06T18:24:49.769Z,99148.18
2023-04-06T18:27:20.959Z,99151.97
2023-04-06T18:29:53.441Z,99156.94
2023-04-06T18:32:21.804Z,99153.40
2023-04-06T18:34:50.664Z,99150.26
2023-04-06T18:37:19.353Z,99152.62
2023-04-06T18:39:47.558Z,99159.61
2023-04-06T18:42:18.188Z,99167.63
2023-04-06T18:44:47.005Z,99165.79
2023-04-06T18:47:15.941Z,99172.73
2023-04-06T18:49:44.458Z,99178.17
2023-04-06T18:52:12.813Z,99181.42
2023-04-06T18:54:41.204Z,99192.44
2023-04-06T18:57:10.141Z,99191.56
2023-04-06T18:59:38.494Z,99194.77
2023-04-06T19:02:07.071Z,99197.71
2023-04-06T19:04:35.696Z,99200.02
2023-04-06T19:07:05.529Z,99199.54
2023-04-06T19:09:41.807Z,99199.23
2023-04-06T19:12:10.977Z,99209.56
2023-04-06T19:14:39.706Z,99216.56
2023-04-06T19:17:10.630Z,99217.86
2023-04-06T19:19:40.498Z,99215.78
2023-04-06T19:22:09.415Z,99219.38
2023-04-06T19:24:38.127Z,99221.77
2023-04-06T19:27:06.533Z,99224.77
2023-04-06T19:29:38.473Z,99221.92
2023-04-06T19:32:08.352Z,99231.46
2023-04-06T19:34:38.334Z,99237.89
2023-04-06T19:37:06.893Z,99238.02
2023-04-06T19:39:37.503Z,99242.00
2023-04-06T19:42:07.570Z,99241.30
2023-04-06T19:44:36.672Z,99245.66
2023-04-06T19:47:05.101Z,99251.30
2023-04-06T19:49:34.120Z,99253.77
2023-04-06T19:52:02.529Z,99252.94
2023-04-06T19:54:31.425Z,99252.70
2023-04-06T19:57:00.141Z,99257.18
2023-04-06T19:59:28.473Z,99257.24
2023-04-06T20:01:57.110Z,99253.94
2023-04-06T20:04:26.052Z,99233.27
2023-04-06T20:06:55.000Z,99249.80
2023-04-06T20:09:23.300Z,99248.25
2023-04-06T20:11:54.568Z,99246.84
2023-04-06T20:14:23.512Z,99250.55
2023-04-06T20:16:52.961Z,99253.83
2023-04-06T20:19:23.502Z,99258.18
2023-04-06T20:21:51.805Z,99264.01
2023-04-06T20:24:21.150Z,99266.62
2023-04-06T20:26:51.031Z,99268.02
2023-04-06T20:29:19.535Z,99273.54
2023-04-06T20:31:49.324Z,99278.19
2023-04-06T20:34:18.052Z,99280.42
2023-04-06T20:36:46.524Z,99286.27
2023-04-06T20:39:15.773Z,99284.89
2023-04-06T20:41:45.513Z,99287.21
2023-04-06T20:44:21.520Z,99291.27
2023-04-06T20:46:50.200Z,99295.42
2023-04-06T20:49:18.857Z,99299.14
2023-04-06T20:51:47.444Z,99302.34
2023-04-06T20:54:16.758Z,99307.36
2023-04-06T20:56:49.679Z,99310.66
2023-04-06T20:59:18.979Z,99309.90
2023-04-06T21:01:47.436Z,99313.64
2023-04-06T21:04:16.732Z,99313.42
2023-04-06T21:06:46.174Z,99318.34
2023-04-06T21:09:15.118Z,99320.98
2023-04-06T21:11:45.440Z,99323.23
2023-04-06T21:14:13.750Z,99327.54
2023-04-06T21:16:44.431Z,99327.88
2023-04-06T21:19:12.867Z,99325.57
2023-04-06T21:21:41.610Z,99330.89
2023-04-06T21:24:12.107Z,99331.55
2023-04-06T21:26:40.944Z,99336.18
2023-04-06T21:29:09.175Z,99335.58
2023-04-06T21:31:42.345Z,99338.61
2023-04-06T21:34:12.421Z,99338.46
2023-04-06T21:36:41.566Z,99342.46
2023-04-06T21:39:10.127Z,99344.18
2023-04-06T21:41:40.551Z,99344.19
2023-04-06T21:44:08.912Z,99348.70
2023-04-06T21:46:37.303Z,99350.41
2023-04-06T21:49:05.833Z,99353.09
2023-04-06T21:51:34.174Z,99356.40
2023-04-06T21:54:02.914Z,99358.33
2023-04-06T21:56:31.883Z,99363.25
2023-04-06T21:59:00.929Z,99356.84
2023-04-06T22:01:29.467Z,99364.86
2023-04-06T22:03:58.344Z,99364.77
2023-04-06T22:06:30.169Z,99366.34
2023-04-06T22:09:00.543Z,99369.38
2023-04-06T22:11:31.052Z,99367.68
2023-04-06T22:14:00.814Z,99370.95
2023-04-06T22:16:29.204Z,99371.17
2023-04-06T22:19:04.263Z,99370.96
2023-04-06T22:21:33.334Z,99372.77
2023-04-06T22:24:01.926Z,99381.17
2023-04-06T22:26:31.280Z,99383.46
2023-04-06T22:29:00.069Z,99384.94
2023-04-06T22:31:28.527Z,99382.91
2023-04-06T22:33:57.774Z,99382.81
2023-04-06T22:36:27.292Z,99384.90
2023-04-06T22:38:56.507Z,99388.40
2023-04-06T22:41:24.970Z,99388.63
2023-04-06T22:43:53.371Z,99392.77
2023-04-06T22:46:22.780Z,99389.69
2023-04-06T22:48:51.745Z,99391.34
2023-04-06T22:51:20.082Z,99387.38
2023-04-06T22:53:48.497Z,99389.12
2023-04-06T22:56:18.321Z,99390.85
2023-04-06T22:58:46.805Z,99392.52
2023-04-06T23:01:16.641Z,99392.77
2023-04-06T23:03:46.216Z,99394.82
2023-04-06T23:06:14.563Z,99400.61
2023-04-06T23:08:42.968Z,99398.23
2023-04-06T23:11:14.144Z,99398.79
2023-04-06T23:13:43.002Z,99398.27
2023-04-06T23:16:11.649Z,99402.02
2023-04-06T23:18:41.071Z,99405.65
2023-04-06T23:21:09.533Z,99406.14
2023-04-06T23:23:38.760Z,99407.80
2023-04-06T23:26:07.045Z,99408.64
2023-04-06T23:28:35.941Z,99412.94
2023-04-06T23:31:05.874Z,99405.67
2023-04-06T23:33:36.880Z,99407.13
2023-04-06T23:36:05.457Z,99406.63
2023-04-06T23:38:34.196Z,99405.36
2023-04-06T23:41:02.668Z,99406.52
2023-04-06T23:43:32.160Z,99413.08
2023-04-06T23:46:00.908Z,99414.55
2023-04-06T23:48:29.659Z,99414.59
2023-04-06T23:50:58.039Z,99417.95
2023-04-06T23:53:26.866Z,99419.90
2023-04-06T23:55:55.631Z,99420.06
2023-04-06T23:58:23.960Z,99419.35
